sensor_id;sensor_type;location;lat;lon;timestamp;temperature;humidity
3614;DHT22;1821;50.936;6.854;2023-12-20T00:00:31;8.90;99.90
3614;DHT22;1821;50.936;6.854;2023-12-20T00:01:13;8.90;90.10
3614;DHT22;1821;50.936;6.854;2023-12-20T00:01:54;8.80;99.90
3614;DHT22;1821;50.936;6.854;2023-12-20T00:02:37;8.80;99.90
3614;DHT22;1821;50.936;6.854;2023-12-20T00:03:19;9.10;77.90
3614;DHT22;1821;50.936;6.854;2023-12-20T00:04:01;8.90;99.90
3614;DHT22;1821;50.936;6.854;2023-12-20T00:04:43;9.10;99.90
3614;DHT22;1821;50.936;6.854;2023-12-20T00:05:25;9.50;99.90
3614;DHT22;1821;50.936;6.854;2023-12-20T00:06:08;9.00;99.90
3614;DHT22;1821;50.936;6.854;2023-12-20T00:06:50;9.10;99.90
3614;DHT22;1821;50.936;6.854;2023-12-20T00:07:32;8.80;99.90
3614;DHT22;1821;50.936;6.854;2023-12-20T00:08:14;8.90;99.90
3614;DHT22;1821;50.936;6.854;2023-12-20T00:08:56;8.90;99.90
3614;DHT22;1821;50.936;6.854;2023-12-20T00:09:39;9.10;99.90
3614;DHT22;1821;50.936;6.854;2023-12-20T00:10:21;9.20;99.90
3614;DHT22;1821;50.936;6.854;2023-12-20T00:11:03;9.20;99.90
3614;DHT22;1821;50.936;6.854;2023-12-20T00:11:45;9.10;99.90
3614;DHT22;1821;50.936;6.854;2023-12-20T00:12:28;9.20;99.90
3614;DHT22;1821;50.936;6.854;2023-12-20T00:13:10;8.70;99.90
3614;DHT22;1821;50.936;6.854;2023-12-20T00:13:52;9.10;82.00
3614;DHT22;1821;50.936;6.854;2023-12-20T00:14:34;9.20;99.90
3614;DHT22;1821;50.936;6.854;2023-12-20T00:15:16;8.90;99.90
3614;DHT22;1821;50.936;6.854;2023-12-20T00:15:58;9.10;99.90
3614;DHT22;1821;50.936;6.854;2023-12-20T00:16:40;9.00;49.20
3614;DHT22;1821;50.936;6.854;2023-12-20T00:17:22;9.40;99.90
3614;DHT22;1821;50.936;6.854;2023-12-20T00:18:04;9.10;99.90
3614;DHT22;1821;50.936;6.854;2023-12-20T00:18:46;8.90;99.90
3614;DHT22;1821;50.936;6.854;2023-12-20T00:19:28;9.20;92.40
3614;DHT22;1821;50.936;6.854;2023-12-20T00:20:10;9.10;11.70
3614;DHT22;1821;50.936;6.854;2023-12-20T00:20:52;9.30;99.90
3614;DHT22;1821;50.936;6.854;2023-12-20T00:21:34;9.10;99.90
3614;DHT22;1821;50.936;6.854;2023-12-20T00:22:16;9.30;99.90
3614;DHT22;1821;50.936;6.854;2023-12-20T00:22:58;9.10;99.90
3614;DHT22;1821;50.936;6.854;2023-12-20T00:23:40;9.20;99.90
3614;DHT22;1821;50.936;6.854;2023-12-20T00:24:22;9.30;99.90
3614;DHT22;1821;50.936;6.854;2023-12-20T00:25:04;8.90;58.10
3614;DHT22;1821;50.936;6.854;2023-12-20T00:25:46;8.90;59.60
3614;DHT22;1821;50.936;6.854;2023-12-20T00:26:29;9.30;1.00
3614;DHT22;1821;50.936;6.854;2023-12-20T00:27:11;9.30;1.00
3614;DHT22;1821;50.936;6.854;2023-12-20T00:27:52;8.90;99.90
3614;DHT22;1821;50.936;6.854;2023-12-20T00:28:37;9.30;1.00
3614;DHT22;1821;50.936;6.854;2023-12-20T00:29:20;9.00;99.90
3614;DHT22;1821;50.936;6.854;2023-12-20T00:30:01;9.50;1.00
3614;DHT22;1821;50.936;6.854;2023-12-20T00:30:44;8.90;99.90
3614;DHT22;1821;50.936;6.854;2023-12-20T00:31:26;8.90;99.90
3614;DHT22;1821;50.936;6.854;2023-12-20T00:32:08;9.10;99.90
3614;DHT22;1821;50.936;6.854;2023-12-20T00:32:50;8.80;1.00
3614;DHT22;1821;50.936;6.854;2023-12-20T00:33:32;9.10;1.00
3614;DHT22;1821;50.936;6.854;2023-12-20T00:34:14;9.10;99.90
3614;DHT22;1821;50.936;6.854;2023-12-20T00:34:56;8.90;99.90
3614;DHT22;1821;50.936;6.854;2023-12-20T00:35:38;9.10;3.30
3614;DHT22;1821;50.936;6.854;2023-12-20T00:36:20;8.80;99.90
3614;DHT22;1821;50.936;6.854;2023-12-20T00:37:02;8.70;99.90
3614;DHT22;1821;50.936;6.854;2023-12-20T00:37:44;8.90;99.90
3614;DHT22;1821;50.936;6.854;2023-12-20T00:38:29;8.70;99.90
3614;DHT22;1821;50.936;6.854;2023-12-20T00:39:11;8.70;99.90
3614;DHT22;1821;50.936;6.854;2023-12-20T00:39:53;8.80;99.90
3614;DHT22;1821;50.936;6.854;2023-12-20T00:40:35;8.60;99.90
3614;DHT22;1821;50.936;6.854;2023-12-20T00:41:17;8.90;99.90
3614;DHT22;1821;50.936;6.854;2023-12-20T00:41:59;8.90;99.90
3614;DHT22;1821;50.936;6.854;2023-12-20T00:42:41;8.70;99.90
3614;DHT22;1821;50.936;6.854;2023-12-20T00:43:23;8.90;99.90
3614;DHT22;1821;50.936;6.854;2023-12-20T00:44:05;8.90;99.90
3614;DHT22;1821;50.936;6.854;2023-12-20T00:44:47;8.80;99.90
3614;DHT22;1821;50.936;6.854;2023-12-20T00:45:29;8.50;3.50
3614;DHT22;1821;50.936;6.854;2023-12-20T00:46:16;8.60;1.00
3614;DHT22;1821;50.936;6.854;2023-12-20T00:46:58;8.80;1.00
3614;DHT22;1821;50.936;6.854;2023-12-20T00:47:40;8.80;1.00
3614;DHT22;1821;50.936;6.854;2023-12-20T00:48:22;8.80;1.00
3614;DHT22;1821;50.936;6.854;2023-12-20T00:49:04;8.60;1.00
3614;DHT22;1821;50.936;6.854;2023-12-20T00:49:46;8.60;1.00
3614;DHT22;1821;50.936;6.854;2023-12-20T00:50:28;8.70;1.00
3614;DHT22;1821;50.936;6.854;2023-12-20T00:51:11;8.70;1.00
3614;DHT22;1821;50.936;6.854;2023-12-20T00:51:53;8.70;99.90
3614;DHT22;1821;50.936;6.854;2023-12-20T00:52:35;8.70;99.90
3614;DHT22;1821;50.936;6.854;2023-12-20T00:53:17;8.80;99.90
3614;DHT22;1821;50.936;6.854;2023-12-20T00:54:02;8.70;99.90
3614;DHT22;1821;50.936;6.854;2023-12-20T00:54:44;8.90;99.90
3614;DHT22;1821;50.936;6.854;2023-12-20T00:55:26;8.90;99.90
3614;DHT22;1821;50.936;6.854;2023-12-20T00:56:08;8.80;99.90
3614;DHT22;1821;50.936;6.854;2023-12-20T00:56:50;8.70;99.90
3614;DHT22;1821;50.936;6.854;2023-12-20T00:57:32;8.70;99.90
3614;DHT22;1821;50.936;6.854;2023-12-20T00:58:14;8.70;30.40
3614;DHT22;1821;50.936;6.854;2023-12-20T00:58:57;8.60;99.90
3614;DHT22;1821;50.936;6.854;2023-12-20T00:59:39;8.60;1.00
3614;DHT22;1821;50.936;6.854;2023-12-20T01:00:21;8.50;99.90
3614;DHT22;1821;50.936;6.854;2023-12-20T01:01:03;8.40;99.90
3614;DHT22;1821;50.936;6.854;2023-12-20T01:01:45;8.60;99.90
3614;DHT22;1821;50.936;6.854;2023-12-20T01:02:27;8.60;99.90
3614;DHT22;1821;50.936;6.854;2023-12-20T01:03:09;8.70;99.90
3614;DHT22;1821;50.936;6.854;2023-12-20T01:03:51;8.70;99.90
3614;DHT22;1821;50.936;6.854;2023-12-20T01:04:33;8.70;99.90
3614;DHT22;1821;50.936;6.854;2023-12-20T01:05:15;8.70;99.90
3614;DHT22;1821;50.936;6.854;2023-12-20T01:05:57;8.40;99.90
3614;DHT22;1821;50.936;6.854;2023-12-20T01:06:39;8.60;99.90
3614;DHT22;1821;50.936;6.854;2023-12-20T01:07:21;8.60;99.90
3614;DHT22;1821;50.936;6.854;2023-12-20T01:08:04;8.30;99.90
3614;DHT22;1821;50.936;6.854;2023-12-20T01:08:46;8.20;99.90
3614;DHT22;1821;50.936;6.854;2023-12-20T01:09:31;8.50;99.90
3614;DHT22;1821;50.936;6.854;2023-12-20T01:10:13;8.40;1.00
3614;DHT22;1821;50.936;6.854;2023-12-20T01:10:55;8.30;1.00
3614;DHT22;1821;50.936;6.854;2023-12-20T01:11:36;8.10;1.00
3614;DHT22;1821;50.936;6.854;2023-12-20T01:12:18;8.40;1.00
3614;DHT22;1821;50.936;6.854;2023-12-20T01:13:02;8.20;1.00
3614;DHT22;1821;50.936;6.854;2023-12-20T01:13:46;8.10;1.00
3614;DHT22;1821;50.936;6.854;2023-12-20T01:14:28;8.70;1.00
3614;DHT22;1821;50.936;6.854;2023-12-20T01:15:10;8.00;1.00
3614;DHT22;1821;50.936;6.854;2023-12-20T01:15:52;8.30;1.00
3614;DHT22;1821;50.936;6.854;2023-12-20T01:16:34;8.10;1.00
3614;DHT22;1821;50.936;6.854;2023-12-20T01:17:16;8.10;99.90
3614;DHT22;1821;50.936;6.854;2023-12-20T01:18:00;8.10;99.90
3614;DHT22;1821;50.936;6.854;2023-12-20T01:18:43;8.70;99.90
3614;DHT22;1821;50.936;6.854;2023-12-20T01:19:25;8.00;1.00
3614;DHT22;1821;50.936;6.854;2023-12-20T01:20:09;8.30;1.00
3614;DHT22;1821;50.936;6.854;2023-12-20T01:20:53;8.30;1.00
3614;DHT22;1821;50.936;6.854;2023-12-20T01:21:35;8.20;1.00
3614;DHT22;1821;50.936;6.854;2023-12-20T01:22:17;8.00;1.00
3614;DHT22;1821;50.936;6.854;2023-12-20T01:22:59;8.10;1.00
3614;DHT22;1821;50.936;6.854;2023-12-20T01:23:41;8.20;1.00
3614;DHT22;1821;50.936;6.854;2023-12-20T01:24:23;8.00;98.50
3614;DHT22;1821;50.936;6.854;2023-12-20T01:25:05;8.00;1.00
3614;DHT22;1821;50.936;6.854;2023-12-20T01:25:48;8.40;11.70
3614;DHT22;1821;50.936;6.854;2023-12-20T01:26:30;8.50;99.90
3614;DHT22;1821;50.936;6.854;2023-12-20T01:27:12;8.30;99.90
3614;DHT22;1821;50.936;6.854;2023-12-20T01:27:53;9.00;47.00
3614;DHT22;1821;50.936;6.854;2023-12-20T01:28:35;8.40;52.20
3614;DHT22;1821;50.936;6.854;2023-12-20T01:29:17;8.50;8.40
3614;DHT22;1821;50.936;6.854;2023-12-20T01:29:59;8.30;61.20
3614;DHT22;1821;50.936;6.854;2023-12-20T01:30:41;8.20;68.80
3614;DHT22;1821;50.936;6.854;2023-12-20T01:31:23;8.30;40.60
3614;DHT22;1821;50.936;6.854;2023-12-20T01:32:06;8.30;1.00
3614;DHT22;1821;50.936;6.854;2023-12-20T01:32:48;8.20;1.00
3614;DHT22;1821;50.936;6.854;2023-12-20T01:33:30;8.30;1.00
3614;DHT22;1821;50.936;6.854;2023-12-20T01:34:12;8.20;1.00
3614;DHT22;1821;50.936;6.854;2023-12-20T01:34:54;8.80;1.00
3614;DHT22;1821;50.936;6.854;2023-12-20T01:35:40;8.30;1.00
3614;DHT22;1821;50.936;6.854;2023-12-20T01:36:22;8.00;1.00
3614;DHT22;1821;50.936;6.854;2023-12-20T01:37:04;8.20;1.00
3614;DHT22;1821;50.936;6.854;2023-12-20T01:37:46;8.20;1.00
3614;DHT22;1821;50.936;6.854;2023-12-20T01:38:28;8.40;1.00
3614;DHT22;1821;50.936;6.854;2023-12-20T01:39:13;8.30;1.00
3614;DHT22;1821;50.936;6.854;2023-12-20T01:40:09;8.60;1.00
3614;DHT22;1821;50.936;6.854;2023-12-20T01:40:52;8.50;1.00
3614;DHT22;1821;50.936;6.854;2023-12-20T01:41:34;8.60;1.00
3614;DHT22;1821;50.936;6.854;2023-12-20T01:42:16;8.50;1.00
3614;DHT22;1821;50.936;6.854;2023-12-20T01:43:02;8.30;1.00
3614;DHT22;1821;50.936;6.854;2023-12-20T01:43:44;8.40;1.00
3614;DHT22;1821;50.936;6.854;2023-12-20T01:44:32;8.20;1.00
3614;DHT22;1821;50.936;6.854;2023-12-20T01:45:14;8.20;1.00
3614;DHT22;1821;50.936;6.854;2023-12-20T01:45:57;7.70;99.90
3614;DHT22;1821;50.936;6.854;2023-12-20T01:46:42;8.20;1.00
3614;DHT22;1821;50.936;6.854;2023-12-20T01:47:24;8.20;1.00
3614;DHT22;1821;50.936;6.854;2023-12-20T01:48:07;8.10;1.00
3614;DHT22;1821;50.936;6.854;2023-12-20T01:48:52;8.30;1.00
3614;DHT22;1821;50.936;6.854;2023-12-20T01:49:35;7.50;1.00
3614;DHT22;1821;50.936;6.854;2023-12-20T01:50:17;8.30;1.00
3614;DHT22;1821;50.936;6.854;2023-12-20T01:51:00;8.40;1.00
3614;DHT22;1821;50.936;6.854;2023-12-20T01:51:43;8.40;47.40
3614;DHT22;1821;50.936;6.854;2023-12-20T01:52:25;8.00;99.90
3614;DHT22;1821;50.936;6.854;2023-12-20T01:53:09;8.20;1.00
3614;DHT22;1821;50.936;6.854;2023-12-20T01:53:51;8.20;1.00
3614;DHT22;1821;50.936;6.854;2023-12-20T01:54:36;8.00;1.00
3614;DHT22;1821;50.936;6.854;2023-12-20T01:55:19;8.10;1.00
3614;DHT22;1821;50.936;6.854;2023-12-20T01:56:02;8.00;1.00
3614;DHT22;1821;50.936;6.854;2023-12-20T01:56:44;8.30;99.90
3614;DHT22;1821;50.936;6.854;2023-12-20T01:57:27;8.00;99.90
3614;DHT22;1821;50.936;6.854;2023-12-20T01:58:11;7.80;1.00
3614;DHT22;1821;50.936;6.854;2023-12-20T01:58:54;7.80;99.90
3614;DHT22;1821;50.936;6.854;2023-12-20T01:59:39;8.10;99.90
3614;DHT22;1821;50.936;6.854;2023-12-20T02:00:21;8.00;1.00
3614;DHT22;1821;50.936;6.854;2023-12-20T02:01:08;8.00;99.90
3614;DHT22;1821;50.936;6.854;2023-12-20T02:01:50;7.90;99.90
3614;DHT22;1821;50.936;6.854;2023-12-20T02:02:33;8.30;1.00
3614;DHT22;1821;50.936;6.854;2023-12-20T02:03:16;8.20;99.90
3614;DHT22;1821;50.936;6.854;2023-12-20T02:04:00;7.60;1.00
3614;DHT22;1821;50.936;6.854;2023-12-20T02:04:42;7.70;99.90
3614;DHT22;1821;50.936;6.854;2023-12-20T02:05:25;7.50;99.90
3614;DHT22;1821;50.936;6.854;2023-12-20T02:06:08;7.70;99.90
3614;DHT22;1821;50.936;6.854;2023-12-20T02:06:53;8.10;99.90
3614;DHT22;1821;50.936;6.854;2023-12-20T02:07:37;7.60;99.90
3614;DHT22;1821;50.936;6.854;2023-12-20T02:08:19;7.40;99.90
3614;DHT22;1821;50.936;6.854;2023-12-20T02:09:04;7.00;99.90
3614;DHT22;1821;50.936;6.854;2023-12-20T02:09:46;7.70;99.90
3614;DHT22;1821;50.936;6.854;2023-12-20T02:10:28;7.60;1.00
3614;DHT22;1821;50.936;6.854;2023-12-20T02:11:11;7.50;1.00
3614;DHT22;1821;50.936;6.854;2023-12-20T02:11:53;7.60;1.00
3614;DHT22;1821;50.936;6.854;2023-12-20T02:12:35;7.60;1.00
3614;DHT22;1821;50.936;6.854;2023-12-20T02:13:17;7.60;1.00
3614;DHT22;1821;50.936;6.854;2023-12-20T02:13:59;7.20;1.00
3614;DHT22;1821;50.936;6.854;2023-12-20T02:14:41;7.40;1.00
3614;DHT22;1821;50.936;6.854;2023-12-20T02:15:23;7.30;1.00
3614;DHT22;1821;50.936;6.854;2023-12-20T02:16:05;6.50;1.00
3614;DHT22;1821;50.936;6.854;2023-12-20T02:16:49;7.10;1.00
3614;DHT22;1821;50.936;6.854;2023-12-20T02:17:32;7.40;1.00
3614;DHT22;1821;50.936;6.854;2023-12-20T02:18:14;7.20;99.90
3614;DHT22;1821;50.936;6.854;2023-12-20T02:18:58;7.40;1.00
3614;DHT22;1821;50.936;6.854;2023-12-20T02:19:40;7.30;1.00
3614;DHT22;1821;50.936;6.854;2023-12-20T02:20:23;7.20;1.00
3614;DHT22;1821;50.936;6.854;2023-12-20T02:21:05;7.40;1.00
3614;DHT22;1821;50.936;6.854;2023-12-20T02:21:47;7.40;1.00
3614;DHT22;1821;50.936;6.854;2023-12-20T02:22:29;7.20;1.00
3614;DHT22;1821;50.936;6.854;2023-12-20T02:23:12;7.70;1.00
3614;DHT22;1821;50.936;6.854;2023-12-20T02:23:53;7.30;1.00
3614;DHT22;1821;50.936;6.854;2023-12-20T02:24:36;7.40;99.90
3614;DHT22;1821;50.936;6.854;2023-12-20T02:25:18;7.30;99.90
3614;DHT22;1821;50.936;6.854;2023-12-20T02:26:03;7.30;99.90
3614;DHT22;1821;50.936;6.854;2023-12-20T02:26:45;7.50;99.90
3614;DHT22;1821;50.936;6.854;2023-12-20T02:27:29;7.30;99.90
3614;DHT22;1821;50.936;6.854;2023-12-20T02:28:12;7.40;99.90
3614;DHT22;1821;50.936;6.854;2023-12-20T02:28:54;7.10;99.90
3614;DHT22;1821;50.936;6.854;2023-12-20T02:29:39;7.30;99.90
3614;DHT22;1821;50.936;6.854;2023-12-20T02:30:21;7.40;99.90
3614;DHT22;1821;50.936;6.854;2023-12-20T02:31:03;7.30;99.90
3614;DHT22;1821;50.936;6.854;2023-12-20T02:31:45;7.20;99.90
3614;DHT22;1821;50.936;6.854;2023-12-20T02:32:27;7.40;1.00
3614;DHT22;1821;50.936;6.854;2023-12-20T02:33:11;7.50;1.00
3614;DHT22;1821;50.936;6.854;2023-12-20T02:33:56;7.30;1.00
3614;DHT22;1821;50.936;6.854;2023-12-20T02:34:38;7.30;1.00
3614;DHT22;1821;50.936;6.854;2023-12-20T02:35:20;7.30;1.00
3614;DHT22;1821;50.936;6.854;2023-12-20T02:36:06;7.10;1.00
3614;DHT22;1821;50.936;6.854;2023-12-20T02:36:48;7.40;1.00
3614;DHT22;1821;50.936;6.854;2023-12-20T02:37:30;7.30;1.00
3614;DHT22;1821;50.936;6.854;2023-12-20T02:38:12;7.30;1.00
3614;DHT22;1821;50.936;6.854;2023-12-20T02:38:55;7.30;1.00
3614;DHT22;1821;50.936;6.854;2023-12-20T02:39:37;7.20;1.00
3614;DHT22;1821;50.936;6.854;2023-12-20T02:40:21;7.30;1.00
3614;DHT22;1821;50.936;6.854;2023-12-20T02:41:03;7.30;99.90
3614;DHT22;1821;50.936;6.854;2023-12-20T02:41:45;7.00;1.00
3614;DHT22;1821;50.936;6.854;2023-12-20T02:42:27;6.80;99.90
3614;DHT22;1821;50.936;6.854;2023-12-20T02:43:09;6.90;99.90
3614;DHT22;1821;50.936;6.854;2023-12-20T02:43:51;7.10;1.00
3614;DHT22;1821;50.936;6.854;2023-12-20T02:44:33;7.20;99.90
3614;DHT22;1821;50.936;6.854;2023-12-20T02:45:15;6.40;99.90
3614;DHT22;1821;50.936;6.854;2023-12-20T02:45:57;7.50;99.90
3614;DHT22;1821;50.936;6.854;2023-12-20T02:46:40;7.20;99.90
3614;DHT22;1821;50.936;6.854;2023-12-20T02:47:24;7.20;99.90
3614;DHT22;1821;50.936;6.854;2023-12-20T02:48:07;7.30;99.90
3614;DHT22;1821;50.936;6.854;2023-12-20T02:48:49;7.20;99.90
3614;DHT22;1821;50.936;6.854;2023-12-20T02:49:31;7.40;1.00
3614;DHT22;1821;50.936;6.854;2023-12-20T02:50:13;7.50;1.00
3614;DHT22;1821;50.936;6.854;2023-12-20T02:50:55;7.50;1.00
3614;DHT22;1821;50.936;6.854;2023-12-20T02:51:38;7.20;99.90
3614;DHT22;1821;50.936;6.854;2023-12-20T02:52:21;7.30;99.90
3614;DHT22;1821;50.936;6.854;2023-12-20T02:53:03;7.60;1.00
3614;DHT22;1821;50.936;6.854;2023-12-20T02:53:45;7.50;1.00
3614;DHT22;1821;50.936;6.854;2023-12-20T02:54:27;7.50;99.90
3614;DHT22;1821;50.936;6.854;2023-12-20T02:55:09;7.20;99.90
3614;DHT22;1821;50.936;6.854;2023-12-20T02:55:53;7.60;99.90
3614;DHT22;1821;50.936;6.854;2023-12-20T02:56:35;7.60;1.00
3614;DHT22;1821;50.936;6.854;2023-12-20T02:57:17;7.60;1.00
3614;DHT22;1821;50.936;6.854;2023-12-20T02:57:59;7.30;99.90
3614;DHT22;1821;50.936;6.854;2023-12-20T02:58:41;7.30;99.90
3614;DHT22;1821;50.936;6.854;2023-12-20T02:59:23;7.80;99.90
3614;DHT22;1821;50.936;6.854;2023-12-20T03:00:05;7.30;1.00
3614;DHT22;1821;50.936;6.854;2023-12-20T03:00:47;7.40;1.00
3614;DHT22;1821;50.936;6.854;2023-12-20T03:01:30;7.50;1.00
3614;DHT22;1821;50.936;6.854;2023-12-20T03:02:12;7.30;1.00
3614;DHT22;1821;50.936;6.854;2023-12-20T03:02:54;7.50;1.00
3614;DHT22;1821;50.936;6.854;2023-12-20T03:03:36;7.30;1.00
3614;DHT22;1821;50.936;6.854;2023-12-20T03:04:18;7.50;99.90
3614;DHT22;1821;50.936;6.854;2023-12-20T03:05:00;7.40;99.90
3614;DHT22;1821;50.936;6.854;2023-12-20T03:05:42;7.40;1.00
3614;DHT22;1821;50.936;6.854;2023-12-20T03:06:25;7.60;99.90
3614;DHT22;1821;50.936;6.854;2023-12-20T03:07:07;7.50;99.90
3614;DHT22;1821;50.936;6.854;2023-12-20T03:07:49;7.60;1.00
3614;DHT22;1821;50.936;6.854;2023-12-20T03:08:31;7.60;99.90
3614;DHT22;1821;50.936;6.854;2023-12-20T03:09:13;7.50;99.90
3614;DHT22;1821;50.936;6.854;2023-12-20T03:09:55;7.30;99.90
3614;DHT22;1821;50.936;6.854;2023-12-20T03:10:56;7.50;99.90
3614;DHT22;1821;50.936;6.854;2023-12-20T03:11:38;7.70;1.00
3614;DHT22;1821;50.936;6.854;2023-12-20T03:12:20;7.40;99.90
3614;DHT22;1821;50.936;6.854;2023-12-20T03:13:02;7.50;99.90
3614;DHT22;1821;50.936;6.854;2023-12-20T03:13:44;7.40;1.00
3614;DHT22;1821;50.936;6.854;2023-12-20T03:14:26;7.30;1.00
3614;DHT22;1821;50.936;6.854;2023-12-20T03:15:08;7.70;1.00
3614;DHT22;1821;50.936;6.854;2023-12-20T03:15:50;7.70;1.00
3614;DHT22;1821;50.936;6.854;2023-12-20T03:16:32;7.40;1.00
3614;DHT22;1821;50.936;6.854;2023-12-20T03:17:19;7.40;1.00
3614;DHT22;1821;50.936;6.854;2023-12-20T03:18:02;7.50;99.90
3614;DHT22;1821;50.936;6.854;2023-12-20T03:18:44;7.40;1.00
3614;DHT22;1821;50.936;6.854;2023-12-20T03:19:26;7.40;1.00
3614;DHT22;1821;50.936;6.854;2023-12-20T03:20:09;7.50;1.00
3614;DHT22;1821;50.936;6.854;2023-12-20T03:20:51;7.50;1.00
3614;DHT22;1821;50.936;6.854;2023-12-20T03:21:33;7.40;1.00
3614;DHT22;1821;50.936;6.854;2023-12-20T03:22:15;7.60;1.00
3614;DHT22;1821;50.936;6.854;2023-12-20T03:22:57;8.10;1.00
3614;DHT22;1821;50.936;6.854;2023-12-20T03:23:40;7.50;99.90
3614;DHT22;1821;50.936;6.854;2023-12-20T03:24:22;7.60;99.90
3614;DHT22;1821;50.936;6.854;2023-12-20T03:25:04;7.60;1.00
3614;DHT22;1821;50.936;6.854;2023-12-20T03:25:46;7.40;1.00
3614;DHT22;1821;50.936;6.854;2023-12-20T03:26:28;7.60;1.00
3614;DHT22;1821;50.936;6.854;2023-12-20T03:27:10;7.50;1.00
3614;DHT22;1821;50.936;6.854;2023-12-20T03:27:53;7.40;1.00
3614;DHT22;1821;50.936;6.854;2023-12-20T03:28:36;7.30;1.00
3614;DHT22;1821;50.936;6.854;2023-12-20T03:29:18;7.80;1.00
3614;DHT22;1821;50.936;6.854;2023-12-20T03:30:00;7.40;1.00
3614;DHT22;1821;50.936;6.854;2023-12-20T03:30:42;7.50;1.00
3614;DHT22;1821;50.936;6.854;2023-12-20T03:31:24;7.60;1.00
3614;DHT22;1821;50.936;6.854;2023-12-20T03:32:06;7.50;1.00
3614;DHT22;1821;50.936;6.854;2023-12-20T03:32:50;7.60;1.00
3614;DHT22;1821;50.936;6.854;2023-12-20T03:33:32;7.60;1.00
3614;DHT22;1821;50.936;6.854;2023-12-20T03:34:17;7.50;1.00
3614;DHT22;1821;50.936;6.854;2023-12-20T03:34:59;7.70;1.00
3614;DHT22;1821;50.936;6.854;2023-12-20T03:35:41;7.60;1.00
3614;DHT22;1821;50.936;6.854;2023-12-20T03:36:23;7.90;1.00
3614;DHT22;1821;50.936;6.854;2023-12-20T03:37:05;7.60;1.00
3614;DHT22;1821;50.936;6.854;2023-12-20T03:37:47;7.60;1.00
3614;DHT22;1821;50.936;6.854;2023-12-20T03:38:32;7.60;99.90
3614;DHT22;1821;50.936;6.854;2023-12-20T03:39:14;7.60;99.90
3614;DHT22;1821;50.936;6.854;2023-12-20T03:39:56;7.50;99.90
3614;DHT22;1821;50.936;6.854;2023-12-20T03:40:38;7.30;99.90
3614;DHT22;1821;50.936;6.854;2023-12-20T03:41:24;7.40;1.00
3614;DHT22;1821;50.936;6.854;2023-12-20T03:42:06;8.10;1.00
3614;DHT22;1821;50.936;6.854;2023-12-20T03:42:48;7.40;99.90
3614;DHT22;1821;50.936;6.854;2023-12-20T03:43:30;7.50;1.00
3614;DHT22;1821;50.936;6.854;2023-12-20T03:44:54;7.60;1.00
3614;DHT22;1821;50.936;6.854;2023-12-20T03:45:36;9.10;1.00
3614;DHT22;1821;50.936;6.854;2023-12-20T03:46:18;7.50;1.00
3614;DHT22;1821;50.936;6.854;2023-12-20T03:47:00;7.60;1.00
3614;DHT22;1821;50.936;6.854;2023-12-20T03:47:45;7.60;1.00
3614;DHT22;1821;50.936;6.854;2023-12-20T03:48:31;7.40;1.00
3614;DHT22;1821;50.936;6.854;2023-12-20T03:49:15;7.40;1.00
3614;DHT22;1821;50.936;6.854;2023-12-20T03:49:57;7.60;1.00
3614;DHT22;1821;50.936;6.854;2023-12-20T03:50:40;7.40;1.00
3614;DHT22;1821;50.936;6.854;2023-12-20T03:51:22;7.70;1.00
3614;DHT22;1821;50.936;6.854;2023-12-20T03:52:05;7.40;1.00
3614;DHT22;1821;50.936;6.854;2023-12-20T03:52:47;7.50;1.00
3614;DHT22;1821;50.936;6.854;2023-12-20T03:53:29;7.30;99.90
3614;DHT22;1821;50.936;6.854;2023-12-20T03:54:11;7.60;1.00
3614;DHT22;1821;50.936;6.854;2023-12-20T03:54:53;7.50;1.00
3614;DHT22;1821;50.936;6.854;2023-12-20T03:55:35;7.60;99.90
3614;DHT22;1821;50.936;6.854;2023-12-20T03:56:17;7.70;1.00
3614;DHT22;1821;50.936;6.854;2023-12-20T03:57:01;7.40;1.00
3614;DHT22;1821;50.936;6.854;2023-12-20T03:57:43;7.30;1.00
3614;DHT22;1821;50.936;6.854;2023-12-20T03:58:26;7.50;1.00
3614;DHT22;1821;50.936;6.854;2023-12-20T03:59:08;7.30;99.90
3614;DHT22;1821;50.936;6.854;2023-12-20T03:59:50;7.50;1.00
3614;DHT22;1821;50.936;6.854;2023-12-20T04:00:32;7.40;1.00
3614;DHT22;1821;50.936;6.854;2023-12-20T04:01:14;7.60;1.00
3614;DHT22;1821;50.936;6.854;2023-12-20T04:01:56;7.50;1.00
3614;DHT22;1821;50.936;6.854;2023-12-20T04:02:41;7.30;1.00
3614;DHT22;1821;50.936;6.854;2023-12-20T04:03:24;7.50;1.00
3614;DHT22;1821;50.936;6.854;2023-12-20T04:04:06;7.60;1.00
3614;DHT22;1821;50.936;6.854;2023-12-20T04:04:48;7.40;99.90
3614;DHT22;1821;50.936;6.854;2023-12-20T04:05:30;7.50;1.00
3614;DHT22;1821;50.936;6.854;2023-12-20T04:06:19;7.60;1.00
3614;DHT22;1821;50.936;6.854;2023-12-20T04:07:01;7.50;1.00
3614;DHT22;1821;50.936;6.854;2023-12-20T04:07:43;7.60;1.00
3614;DHT22;1821;50.936;6.854;2023-12-20T04:08:26;7.30;1.00
3614;DHT22;1821;50.936;6.854;2023-12-20T04:09:08;8.40;1.00
3614;DHT22;1821;50.936;6.854;2023-12-20T04:09:53;7.50;1.00
3614;DHT22;1821;50.936;6.854;2023-12-20T04:10:35;7.60;99.90
3614;DHT22;1821;50.936;6.854;2023-12-20T04:11:19;7.40;99.90
3614;DHT22;1821;50.936;6.854;2023-12-20T04:12:01;7.60;99.90
3614;DHT22;1821;50.936;6.854;2023-12-20T04:12:43;7.60;99.90
3614;DHT22;1821;50.936;6.854;2023-12-20T04:13:27;7.50;99.90
3614;DHT22;1821;50.936;6.854;2023-12-20T04:14:09;7.70;1.00
3614;DHT22;1821;50.936;6.854;2023-12-20T04:14:52;7.60;99.90
3614;DHT22;1821;50.936;6.854;2023-12-20T04:15:34;7.60;1.00
3614;DHT22;1821;50.936;6.854;2023-12-20T04:16:16;7.60;1.00
3614;DHT22;1821;50.936;6.854;2023-12-20T04:16:58;7.20;99.90
3614;DHT22;1821;50.936;6.854;2023-12-20T04:17:40;7.50;99.90
3614;DHT22;1821;50.936;6.854;2023-12-20T04:18:22;7.80;99.90
3614;DHT22;1821;50.936;6.854;2023-12-20T04:19:05;7.60;1.00
3614;DHT22;1821;50.936;6.854;2023-12-20T04:19:47;7.50;1.00
3614;DHT22;1821;50.936;6.854;2023-12-20T04:20:29;7.50;1.00
3614;DHT22;1821;50.936;6.854;2023-12-20T04:21:12;7.40;99.90
3614;DHT22;1821;50.936;6.854;2023-12-20T04:21:56;7.30;99.90
3614;DHT22;1821;50.936;6.854;2023-12-20T04:22:38;7.20;99.90
3614;DHT22;1821;50.936;6.854;2023-12-20T04:23:20;7.40;99.90
3614;DHT22;1821;50.936;6.854;2023-12-20T04:24:02;7.30;99.90
3614;DHT22;1821;50.936;6.854;2023-12-20T04:24:44;7.20;1.00
3614;DHT22;1821;50.936;6.854;2023-12-20T04:25:26;7.50;99.90
3614;DHT22;1821;50.936;6.854;2023-12-20T04:26:08;7.40;1.00
3614;DHT22;1821;50.936;6.854;2023-12-20T04:26:50;7.60;1.00
3614;DHT22;1821;50.936;6.854;2023-12-20T04:27:34;7.50;1.00
3614;DHT22;1821;50.936;6.854;2023-12-20T04:28:16;7.40;1.00
3614;DHT22;1821;50.936;6.854;2023-12-20T04:28:58;7.40;1.00
3614;DHT22;1821;50.936;6.854;2023-12-20T04:29:41;7.90;99.90
3614;DHT22;1821;50.936;6.854;2023-12-20T04:30:25;7.60;1.00
3614;DHT22;1821;50.936;6.854;2023-12-20T04:31:10;7.30;99.90
3614;DHT22;1821;50.936;6.854;2023-12-20T04:31:52;7.20;99.90
3614;DHT22;1821;50.936;6.854;2023-12-20T04:32:34;7.10;1.00
3614;DHT22;1821;50.936;6.854;2023-12-20T04:33:16;7.00;1.00
3614;DHT22;1821;50.936;6.854;2023-12-20T04:33:59;7.00;1.00
3614;DHT22;1821;50.936;6.854;2023-12-20T04:34:41;7.30;99.90
3614;DHT22;1821;50.936;6.854;2023-12-20T04:35:23;7.20;99.90
3614;DHT22;1821;50.936;6.854;2023-12-20T04:36:05;7.10;99.90
3614;DHT22;1821;50.936;6.854;2023-12-20T04:36:47;7.00;99.90
3614;DHT22;1821;50.936;6.854;2023-12-20T04:37:29;7.10;99.90
3614;DHT22;1821;50.936;6.854;2023-12-20T04:38:11;7.00;99.90
3614;DHT22;1821;50.936;6.854;2023-12-20T04:38:53;7.10;99.90
3614;DHT22;1821;50.936;6.854;2023-12-20T04:39:35;6.80;1.00
3614;DHT22;1821;50.936;6.854;2023-12-20T04:40:17;7.00;99.90
3614;DHT22;1821;50.936;6.854;2023-12-20T04:41:00;7.30;99.90
3614;DHT22;1821;50.936;6.854;2023-12-20T04:41:42;7.10;1.00
3614;DHT22;1821;50.936;6.854;2023-12-20T04:42:27;7.00;1.00
3614;DHT22;1821;50.936;6.854;2023-12-20T04:43:09;7.00;99.90
3614;DHT22;1821;50.936;6.854;2023-12-20T04:43:52;7.20;99.90
3614;DHT22;1821;50.936;6.854;2023-12-20T04:44:34;6.80;99.90
3614;DHT22;1821;50.936;6.854;2023-12-20T04:45:18;7.10;99.90
3614;DHT22;1821;50.936;6.854;2023-12-20T04:46:01;7.10;99.90